Al Hillah, Iraq
Current Conditions -  °F | °C
As of 4:00 PM on Sunday 21 Dec 2014 (Local Time) from ORNI Reporting Station
Clear Clear  
Wind Chill: 18°   Ceiling: Unl
Heat Index: 18°   Visibility: 6mi
Dew Point:   Wind: 15mph
Humidity: 45%   Direction: 320°NW
Pressure: 30.03"   Gusts: NA
Location:  32.48°N, 44.46°E
Report Text: ORNI 211300Z 32013KT CAVOK 18/06 Q1017 NOSIG
Loading
Personal Weather Stations






























Interactive Weather Map New forecast layout! Learn more

10-Day Weather Forecast

Advertisements
Track Severe Weather on mobile